createdAt,value
2019-04-01T00:00:56.218Z,35.00
2019-04-01T00:03:22.942Z,34.90
2019-04-01T00:05:49.698Z,34.93
2019-04-01T00:08:16.423Z,32.70
2019-04-01T00:10:43.170Z,35.10
2019-04-01T00:13:09.906Z,34.00
2019-04-01T00:15:36.666Z,31.00
2019-04-01T00:18:03.411Z,31.70
2019-04-01T00:20:30.159Z,32.53
2019-04-01T00:22:57.006Z,29.80
2019-04-01T00:25:23.653Z,34.97
2019-04-01T00:27:50.414Z,34.20
2019-04-01T00:30:17.177Z,36.50
2019-04-01T00:32:43.942Z,35.80
2019-04-01T00:35:10.726Z,36.60
2019-04-01T00:37:37.453Z,41.07
2019-04-01T00:40:04.370Z,35.67
2019-04-01T00:42:42.904Z,36.47
2019-04-01T00:45:10.539Z,31.77
2019-04-01T00:47:37.312Z,38.80
2019-04-01T00:50:04.190Z,31.60
2019-04-01T00:52:30.935Z,32.33
2019-04-01T00:54:57.690Z,34.60
2019-04-01T00:57:24.438Z,38.17
2019-04-01T00:59:51.167Z,38.38
2019-04-01T01:02:17.914Z,38.37
2019-04-01T01:04:44.651Z,42.53
2019-04-01T01:07:11.429Z,30.97
2019-04-01T01:09:38.137Z,30.17
2019-04-01T01:12:04.884Z,32.17
2019-04-01T01:14:31.610Z,32.73
2019-04-01T01:16:58.349Z,38.17
2019-04-01T01:19:25.091Z,32.80
2019-04-01T01:21:51.831Z,32.50
2019-04-01T01:24:18.566Z,34.13
2019-04-01T01:26:45.310Z,43.40
2019-04-01T01:29:12.045Z,31.13
2019-04-01T01:31:38.795Z,38.47
2019-04-01T01:34:05.627Z,36.70
2019-04-01T01:36:32.642Z,31.83
2019-04-01T01:38:59.358Z,35.53
2019-04-01T01:41:26.112Z,36.07
2019-04-01T01:43:53.028Z,32.03
2019-04-01T01:46:19.774Z,31.80
2019-04-01T01:48:46.525Z,30.47
2019-04-01T01:51:13.299Z,27.90
2019-04-01T01:53:41.587Z,34.00
2019-04-01T01:56:06.783Z,32.17
2019-04-01T01:58:33.547Z,30.83
2019-04-01T02:01:00.422Z,35.30
2019-04-01T02:03:27.172Z,39.30
2019-04-01T02:05:53.910Z,31.60
2019-04-01T02:08:20.670Z,35.80
2019-04-01T02:10:47.406Z,38.53
2019-04-01T02:13:14.153Z,33.43
2019-04-01T02:15:40.895Z,35.77
2019-04-01T02:18:07.650Z,36.20
2019-04-01T02:20:34.417Z,32.90
2019-04-01T02:23:01.158Z,34.33
2019-04-01T02:25:27.946Z,30.50
2019-04-01T02:27:54.694Z,32.63
2019-04-01T02:30:21.459Z,35.63
2019-04-01T02:32:48.207Z,35.27
2019-04-01T02:35:14.930Z,33.90
2019-04-01T02:37:41.688Z,32.03
2019-04-01T02:40:08.430Z,31.87
2019-04-01T02:42:35.193Z,35.43
2019-04-01T02:45:01.935Z,33.60
2019-04-01T02:47:28.679Z,44.80
2019-04-01T02:49:55.401Z,34.43
2019-04-01T02:52:22.153Z,35.03
2019-04-01T02:54:48.871Z,36.00
2019-04-01T02:57:15.618Z,35.20
2019-04-01T02:59:42.363Z,42.03
2019-04-01T03:02:09.094Z,37.17
2019-04-01T03:04:35.869Z,36.07
2019-04-01T03:07:02.597Z,39.33
2019-04-01T03:09:29.358Z,36.93
2019-04-01T03:11:56.083Z,42.93
2019-04-01T03:14:22.864Z,35.57
2019-04-01T03:16:49.606Z,40.17
2019-04-01T03:19:16.366Z,37.60
2019-04-01T03:21:43.096Z,35.17
2019-04-01T03:24:09.857Z,41.47
2019-04-01T03:26:36.585Z,40.30
2019-04-01T03:29:03.334Z,41.90
2019-04-01T03:31:30.135Z,43.83
2019-04-01T03:33:56.980Z,39.17
2019-04-01T03:36:23.705Z,37.13
2019-04-01T03:38:50.452Z,47.07
2019-04-01T03:41:17.344Z,46.00
2019-04-01T03:43:43.946Z,42.17
2019-04-01T03:46:10.716Z,40.43
2019-04-01T03:48:37.457Z,49.60
2019-04-01T03:51:04.196Z,49.85
2019-04-01T03:53:30.946Z,42.70
2019-04-01T03:55:57.675Z,45.60
2019-04-01T03:58:24.424Z,40.10
2019-04-01T04:00:51.216Z,47.40
2019-04-01T04:03:17.963Z,44.00
2019-04-01T04:05:44.682Z,41.47
2019-04-01T04:08:11.431Z,41.10
2019-04-01T04:10:38.168Z,42.20
2019-04-01T04:13:04.892Z,45.43
2019-04-01T04:15:31.652Z,47.53
2019-04-01T04:17:58.415Z,45.40
2019-04-01T04:20:25.169Z,40.93
2019-04-01T04:22:52.300Z,44.63
2019-04-01T04:25:19.031Z,49.73
2019-04-01T04:27:45.782Z,43.23
2019-04-01T04:30:16.366Z,38.80
2019-04-01T04:32:43.099Z,47.20
2019-04-01T04:35:09.847Z,45.73
2019-04-01T04:37:36.590Z,45.93
2019-04-01T04:40:04.046Z,43.40
2019-04-01T04:42:30.797Z,45.07
2019-04-01T04:44:57.756Z,44.70
2019-04-01T04:47:24.402Z,40.57
2019-04-01T04:49:51.169Z,49.90
2019-04-01T04:52:17.898Z,53.15
2019-04-01T04:54:44.709Z,44.53
2019-04-01T04:57:11.426Z,50.67
2019-04-01T04:59:38.203Z,47.13
2019-04-01T05:02:04.935Z,49.03
2019-04-01T05:04:31.695Z,50.63
2019-04-01T05:06:58.455Z,49.70
2019-04-01T05:09:25.278Z,50.47
2019-04-01T05:11:52.180Z,45.07
2019-04-01T05:14:18.930Z,48.05
2019-04-01T05:16:45.669Z,43.63
2019-04-01T05:19:12.442Z,44.60
2019-04-01T05:21:39.172Z,45.10
2019-04-01T05:24:05.890Z,47.33
2019-04-01T05:26:33.131Z,51.73
2019-04-01T05:28:59.866Z,49.63
2019-04-01T05:31:26.602Z,52.20
2019-04-01T05:33:55.580Z,47.83
2019-04-01T05:36:20.221Z,45.50
2019-04-01T05:38:47.001Z,47.83
2019-04-01T05:41:13.740Z,51.57
2019-04-01T05:43:40.463Z,47.33
2019-04-01T05:46:07.207Z,45.03
2019-04-01T05:48:33.949Z,47.97
2019-04-01T05:51:01.510Z,43.23
2019-04-01T05:53:28.250Z,48.65
2019-04-01T05:55:55.005Z,45.33
2019-04-01T05:58:21.747Z,45.97
2019-04-01T06:00:54.124Z,47.03
2019-04-01T06:03:21.022Z,46.73
2019-04-01T06:05:47.769Z,40.77
2019-04-01T06:08:14.518Z,48.07
2019-04-01T06:10:41.271Z,47.20
2019-04-01T06:13:08.014Z,46.75
2019-04-01T06:15:34.758Z,45.33
2019-04-01T06:18:01.510Z,42.67
2019-04-01T06:20:28.266Z,43.10
2019-04-01T06:22:55.006Z,42.20
2019-04-01T06:25:21.758Z,45.47
2019-04-01T06:27:48.510Z,43.70
2019-04-01T06:30:15.326Z,38.43
2019-04-01T06:32:42.086Z,34.73
2019-04-01T06:35:08.834Z,37.73
2019-04-01T06:37:35.591Z,35.33
2019-04-01T06:40:02.354Z,37.60
2019-04-01T06:42:29.110Z,42.27
2019-04-01T06:44:55.833Z,40.35
2019-04-01T06:47:22.590Z,42.90
2019-04-01T06:49:49.322Z,39.03
2019-04-01T06:52:16.077Z,38.13
2019-04-01T06:54:42.798Z,39.57
2019-04-01T06:57:09.546Z,38.50
2019-04-01T06:59:36.298Z,39.40
2019-04-01T07:02:03.112Z,37.97
2019-04-01T07:04:29.905Z,36.57
2019-04-01T07:06:56.670Z,41.00
2019-04-01T07:09:23.485Z,40.67
2019-04-01T07:11:50.254Z,34.23
2019-04-01T07:14:16.994Z,36.07
2019-04-01T07:16:43.749Z,39.07
2019-04-01T07:19:10.501Z,36.10
2019-04-01T07:21:37.291Z,39.77
2019-04-01T07:24:04.030Z,39.40
2019-04-01T07:26:30.902Z,42.33
2019-04-01T07:28:57.642Z,41.73
2019-04-01T07:31:24.404Z,35.80
2019-04-01T07:33:51.126Z,40.27
2019-04-01T07:36:17.879Z,39.17
2019-04-01T07:38:44.626Z,36.63
2019-04-01T07:41:11.363Z,39.47
2019-04-01T07:43:38.118Z,38.47
2019-04-01T07:46:07.986Z,41.53
2019-04-01T07:48:31.648Z,41.40
2019-04-01T07:50:58.361Z,37.27
2019-04-01T07:53:25.110Z,39.83
2019-04-01T07:55:51.920Z,55.40
2019-04-01T07:58:18.674Z,39.77
2019-04-01T08:00:45.393Z,44.07
2019-04-01T08:03:12.857Z,46.03
2019-04-01T08:05:39.583Z,40.47
2019-04-01T08:08:06.350Z,40.80
2019-04-01T08:10:33.306Z,41.88
2019-04-01T08:13:00.063Z,39.00
2019-04-01T08:15:26.830Z,42.60
2019-04-01T08:17:53.582Z,36.33
2019-04-01T08:20:20.328Z,44.27
2019-04-01T08:22:47.075Z,39.98
2019-04-01T08:25:13.801Z,39.37
2019-04-01T08:27:40.546Z,41.70
2019-04-01T08:30:07.294Z,37.10
2019-04-01T08:32:34.034Z,43.60
2019-04-01T08:35:00.762Z,36.50
2019-04-01T08:37:27.522Z,35.30
2019-04-01T08:39:54.248Z,45.67
2019-04-01T08:42:21.033Z,34.53
2019-04-01T08:44:47.765Z,37.33
2019-04-01T08:47:14.505Z,36.13
2019-04-01T08:49:41.235Z,37.73
2019-04-01T08:52:07.974Z,42.93
2019-04-01T08:54:34.687Z,36.73
2019-04-01T08:57:01.430Z,41.77
2019-04-01T08:59:28.179Z,35.25
2019-04-01T09:01:54.906Z,36.20
2019-04-01T09:04:21.662Z,36.00
2019-04-01T09:06:48.393Z,41.18
2019-04-01T09:09:15.199Z,41.47
2019-04-01T09:11:42.095Z,38.35
2019-04-01T09:14:08.854Z,33.13
2019-04-01T09:16:35.584Z,37.40
2019-04-01T09:19:02.334Z,35.33
2019-04-01T09:21:29.054Z,42.27
2019-04-01T09:23:55.807Z,36.63
2019-04-01T09:26:22.593Z,37.93
2019-04-01T09:28:49.294Z,39.20
2019-04-01T09:31:16.018Z,31.00
2019-04-01T09:33:42.794Z,35.97
2019-04-01T09:36:09.528Z,32.93
2019-04-01T09:38:36.271Z,32.43
2019-04-01T09:41:03.274Z,32.60
2019-04-01T09:43:30.014Z,38.03
2019-04-01T09:45:56.754Z,36.37
2019-04-01T09:48:23.871Z,32.60
2019-04-01T09:50:50.232Z,35.90
2019-04-01T09:53:16.978Z,34.30
2019-04-01T09:55:43.706Z,36.73
2019-04-01T09:58:10.522Z,34.07
2019-04-01T10:00:37.256Z,40.13
2019-04-01T10:03:04.005Z,41.03
2019-04-01T10:05:30.740Z,37.97
2019-04-01T10:07:57.579Z,35.25
2019-04-01T10:10:24.302Z,33.70
2019-04-01T10:12:51.051Z,35.80
2019-04-01T10:15:17.807Z,33.00
2019-04-01T10:17:44.547Z,35.60
2019-04-01T10:20:11.330Z,36.80
2019-04-01T10:22:38.078Z,32.37
2019-04-01T10:25:04.826Z,35.07
2019-04-01T10:27:31.578Z,33.20
2019-04-01T10:29:58.341Z,36.83
2019-04-01T10:32:25.082Z,35.10
2019-04-01T10:34:51.833Z,33.60
2019-04-01T10:37:18.565Z,35.03
2019-04-01T10:39:45.307Z,35.47
2019-04-01T10:42:12.042Z,30.60
2019-04-01T10:44:38.782Z,31.67
2019-04-01T10:47:05.521Z,35.27
2019-04-01T10:49:32.363Z,33.73
2019-04-01T10:51:59.030Z,33.63
2019-04-01T10:54:25.827Z,36.65
2019-04-01T10:56:52.607Z,37.40
2019-04-01T10:59:19.293Z,34.98
2019-04-01T11:01:46.015Z,33.60
2019-04-01T11:04:12.807Z,32.73
2019-04-01T11:06:39.478Z,36.87
2019-04-01T11:09:07.033Z,35.25
2019-04-01T11:11:33.714Z,31.70
2019-04-01T11:14:00.468Z,32.93
2019-04-01T11:16:27.215Z,33.87
2019-04-01T11:18:53.977Z,30.97
2019-04-01T11:21:20.708Z,36.40
2019-04-01T11:23:47.467Z,33.88
2019-04-01T11:26:14.203Z,36.43
2019-04-01T11:28:40.986Z,36.95
2019-04-01T11:31:07.729Z,32.17
2019-04-01T11:33:34.530Z,32.30
2019-04-01T11:36:01.236Z,33.53
2019-04-01T11:38:28.058Z,36.13
2019-04-01T11:40:54.741Z,34.63
2019-04-01T11:43:21.510Z,34.20
2019-04-01T11:45:48.230Z,33.07
2019-04-01T11:48:14.950Z,30.83
2019-04-01T11:50:41.707Z,34.90
2019-04-01T11:53:08.403Z,37.87
2019-04-01T11:55:35.177Z,34.83
2019-04-01T11:58:01.898Z,35.53
2019-04-01T12:00:28.661Z,29.33
2019-04-01T12:02:55.399Z,33.50
2019-04-01T12:05:22.172Z,29.63
2019-04-01T12:07:48.871Z,38.20
2019-04-01T12:10:15.638Z,33.20
2019-04-01T12:12:42.363Z,38.73
2019-04-01T12:15:11.990Z,32.10
2019-04-01T12:17:35.873Z,34.40
2019-04-01T12:20:02.641Z,31.40
2019-04-01T12:22:29.372Z,34.60
2019-04-01T12:24:56.190Z,26.47
2019-04-01T12:27:22.921Z,31.57
2019-04-01T12:29:50.050Z,32.47
2019-04-01T12:32:16.756Z,30.57
2019-04-01T12:34:43.535Z,30.33
2019-04-01T12:37:10.246Z,31.00
2019-04-01T12:39:36.990Z,31.57
2019-04-01T12:42:03.725Z,28.83
2019-04-01T12:44:30.484Z,31.00
2019-04-01T12:46:57.222Z,27.03
2019-04-01T12:49:23.972Z,29.50
2019-04-01T12:51:50.708Z,33.67
2019-04-01T12:54:17.466Z,33.43
2019-04-01T12:56:44.213Z,27.85
2019-04-01T12:59:10.971Z,30.40
2019-04-01T13:01:37.697Z,27.43
2019-04-01T13:04:04.554Z,27.50
2019-04-01T13:06:31.183Z,30.70
2019-04-01T13:08:57.962Z,29.67
2019-04-01T13:11:24.740Z,24.53
2019-04-01T13:13:51.471Z,27.90
2019-04-01T13:16:18.220Z,30.30
2019-04-01T13:18:44.944Z,29.30
2019-04-01T13:21:11.806Z,27.73
2019-04-01T13:23:38.533Z,27.40
2019-04-01T13:26:05.296Z,31.97
2019-04-01T13:28:32.030Z,30.10
2019-04-01T13:30:58.783Z,27.03
2019-04-01T13:33:25.574Z,31.50
2019-04-01T13:35:52.895Z,32.10
2019-04-01T13:38:19.066Z,27.93
2019-04-01T13:40:45.798Z,30.10
2019-04-01T13:43:14.012Z,31.23
2019-04-01T13:45:39.398Z,25.10
2019-04-01T13:48:06.157Z,30.43
2019-04-01T13:50:32.947Z,30.10
2019-04-01T13:52:59.638Z,23.00
2019-04-01T13:55:26.385Z,25.40
2019-04-01T13:57:53.120Z,23.53
2019-04-01T14:00:20.332Z,39.83
2019-04-01T14:02:46.679Z,24.90
2019-04-01T14:05:13.446Z,27.20
2019-04-01T14:07:40.256Z,24.77
2019-04-01T14:10:07.018Z,27.20
2019-04-01T14:12:33.774Z,24.93
2019-04-01T14:15:00.508Z,27.52
2019-04-01T14:17:27.265Z,25.17
2019-04-01T14:19:54.063Z,23.23
2019-04-01T14:22:20.834Z,23.90
2019-04-01T14:24:47.562Z,31.40
2019-04-01T14:27:14.385Z,26.40
2019-04-01T14:29:41.130Z,25.82
2019-04-01T14:32:07.882Z,34.50
2019-04-01T14:34:35.445Z,26.63
2019-04-01T14:37:01.391Z,25.70
2019-04-01T14:39:28.128Z,28.07
2019-04-01T14:41:54.928Z,21.10
2019-04-01T14:44:21.647Z,27.13
2019-04-01T14:46:48.399Z,24.67
2019-04-01T14:49:15.134Z,27.60
2019-04-01T14:51:42.606Z,25.93
2019-04-01T14:54:08.622Z,26.73
2019-04-01T14:56:35.531Z,24.27
2019-04-01T14:59:02.271Z,27.23
2019-04-01T15:01:30.185Z,19.90
2019-04-01T15:03:55.746Z,18.90
2019-04-01T15:06:22.507Z,29.23
2019-04-01T15:08:49.249Z,23.10
2019-04-01T15:11:16.036Z,20.33
2019-04-01T15:13:42.782Z,21.53
2019-04-01T15:16:09.546Z,22.10
2019-04-01T15:18:36.286Z,24.27
2019-04-01T15:21:03.063Z,22.87
2019-04-01T15:23:29.773Z,21.03
2019-04-01T15:28:22.872Z,23.03
2019-04-01T15:30:49.606Z,22.43
2019-04-01T15:33:16.355Z,25.23
2019-04-01T15:35:43.162Z,24.47
2019-04-01T15:38:09.893Z,24.90
2019-04-01T15:40:36.574Z,24.20
2019-04-01T15:43:03.334Z,24.57
2019-04-01T15:45:31.408Z,23.17
2019-04-01T15:47:56.854Z,23.90
2019-04-01T15:50:28.945Z,27.03
2019-04-01T15:52:50.340Z,26.23
2019-04-01T15:55:17.125Z,27.83
2019-04-01T15:57:43.968Z,26.47
2019-04-01T16:00:10.726Z,32.10
2019-04-01T16:02:37.482Z,26.43
2019-04-01T16:05:05.910Z,22.63
2019-04-01T16:07:31.297Z,28.10
2019-04-01T16:09:58.035Z,29.10
2019-04-01T16:12:24.835Z,33.90
2019-04-01T16:14:51.554Z,27.10
2019-04-01T16:17:18.342Z,27.00
2019-04-01T16:19:45.084Z,26.47
2019-04-01T16:22:12.156Z,36.33
2019-04-01T16:24:38.873Z,28.33
2019-04-01T16:27:05.622Z,26.00
2019-04-01T16:29:32.374Z,26.47
2019-04-01T16:31:59.128Z,25.60
2019-04-01T16:34:25.947Z,26.20
2019-04-01T16:36:52.746Z,27.73
2019-04-01T16:39:19.475Z,33.67
2019-04-01T16:41:49.943Z,27.37
2019-04-01T16:44:12.970Z,29.90
2019-04-01T16:46:40.246Z,27.23
2019-04-01T16:49:07.460Z,25.20
2019-04-01T16:51:33.426Z,27.27
2019-04-01T16:54:00.183Z,27.97
2019-04-01T16:56:26.935Z,23.67
2019-04-01T16:58:53.694Z,29.93
2019-04-01T17:01:20.455Z,24.80
2019-04-01T17:03:47.233Z,22.80
2019-04-01T17:06:13.942Z,26.77
2019-04-01T17:08:40.707Z,23.53
2019-04-01T17:11:07.459Z,23.83
2019-04-01T17:13:34.191Z,24.30
2019-04-01T17:16:01.637Z,26.10
2019-04-01T17:18:27.686Z,32.83
2019-04-01T17:20:54.437Z,26.42
2019-04-01T17:23:21.205Z,24.80
2019-04-01T17:25:47.958Z,27.97
2019-04-01T17:28:14.703Z,27.37
2019-04-01T17:30:41.428Z,30.72
2019-04-01T17:33:08.685Z,30.57
2019-04-01T17:35:34.918Z,25.33
2019-04-01T17:38:01.659Z,26.20
2019-04-01T17:40:28.405Z,26.70
2019-04-01T17:42:55.207Z,23.17
2019-04-01T17:45:29.337Z,22.53
2019-04-01T17:47:56.079Z,24.03
2019-04-01T17:50:22.830Z,26.40
2019-04-01T17:52:49.638Z,23.80
2019-04-01T17:55:17.243Z,25.20
2019-04-01T17:57:43.133Z,24.77
2019-04-01T18:00:10.608Z,25.50
2019-04-01T18:02:37.350Z,31.27
2019-04-01T18:05:04.188Z,26.07
2019-04-01T18:07:30.924Z,24.47
2019-04-01T18:09:57.650Z,27.20
2019-04-01T18:12:24.402Z,23.00
2019-04-01T18:14:51.155Z,24.40
2019-04-01T18:17:18.655Z,19.43
2019-04-01T18:19:44.729Z,23.03
2019-04-01T18:22:12.503Z,21.17
2019-04-01T18:24:39.319Z,21.12
2019-04-01T18:27:06.165Z,24.30
2019-04-01T18:29:32.989Z,22.70
2019-04-01T18:31:59.784Z,23.40
2019-04-01T18:34:27.944Z,20.70
2019-04-01T18:36:53.336Z,24.90
2019-04-01T18:39:20.076Z,24.13
2019-04-01T18:41:46.842Z,25.80
2019-04-01T18:44:13.635Z,23.33
2019-04-01T18:46:40.385Z,20.62
2019-04-01T18:49:07.121Z,22.83
2019-04-01T18:51:36.453Z,25.10
2019-04-01T18:54:00.614Z,29.10
2019-04-01T18:56:28.229Z,23.10
2019-04-01T18:58:54.411Z,25.10
2019-04-01T19:01:20.909Z,26.50
2019-04-01T19:03:47.656Z,23.67
2019-04-01T19:06:14.427Z,24.23
2019-04-01T19:08:41.146Z,19.07
2019-04-01T19:11:07.910Z,23.30
2019-04-01T19:13:34.634Z,23.02
2019-04-01T19:16:03.373Z,24.87
2019-04-01T19:18:28.142Z,26.33
2019-04-01T19:20:56.408Z,22.42
2019-04-01T19:23:21.686Z,25.60
2019-04-01T19:25:48.444Z,22.93
2019-04-01T19:28:15.174Z,20.40
2019-04-01T19:30:43.150Z,31.47
2019-04-01T19:33:09.058Z,21.20
2019-04-01T19:35:35.397Z,22.53
2019-04-01T19:38:02.123Z,20.60
2019-04-01T19:40:28.878Z,24.97
2019-04-01T19:42:55.612Z,23.40
2019-04-01T19:45:22.359Z,26.07
2019-04-01T19:47:49.106Z,25.00
2019-04-01T19:50:18.316Z,20.13
2019-04-01T19:52:44.310Z,23.20
2019-04-01T19:55:09.376Z,22.80
2019-04-01T19:57:36.146Z,20.17
2019-04-01T20:00:03.364Z,22.60
2019-04-01T20:02:30.113Z,19.80
2019-04-01T20:04:56.842Z,19.27
2019-04-01T20:07:23.643Z,19.57
2019-04-01T20:09:50.381Z,20.40
2019-04-01T20:12:17.127Z,24.80
2019-04-01T20:14:43.866Z,23.53
2019-04-01T20:17:10.614Z,21.80
2019-04-01T20:19:37.354Z,23.73
2019-04-01T20:22:04.294Z,20.13
2019-04-01T20:24:31.013Z,21.93
2019-04-01T20:26:57.769Z,22.83
2019-04-01T20:29:24.510Z,24.97
2019-04-01T20:31:51.250Z,20.13
2019-04-01T20:34:19.796Z,21.43
2019-04-01T20:36:44.821Z,22.37
2019-04-01T20:39:11.572Z,23.63
2019-04-01T20:41:38.298Z,26.37
2019-04-01T20:44:05.173Z,23.20
2019-04-01T20:46:31.923Z,30.70
2019-04-01T20:48:58.659Z,23.50
2019-04-01T20:51:26.121Z,23.10
2019-04-01T20:53:52.127Z,24.75
2019-04-01T20:56:20.141Z,22.63
2019-04-01T20:58:45.594Z,25.33
2019-04-01T21:01:12.326Z,22.83
2019-04-01T21:03:39.071Z,24.23
2019-04-01T21:06:05.793Z,20.53
2019-04-01T21:08:32.539Z,24.37
2019-04-01T21:10:59.265Z,24.43
2019-04-01T21:13:26.021Z,24.50
2019-04-01T21:15:52.754Z,22.10
2019-04-01T21:18:20.056Z,21.90
2019-04-01T21:20:46.245Z,21.63
2019-04-01T21:23:12.985Z,23.77
2019-04-01T21:25:39.719Z,27.53
2019-04-01T21:28:06.463Z,23.27
2019-04-01T21:30:33.190Z,21.53
2019-04-01T21:32:59.961Z,21.83
2019-04-01T21:35:26.687Z,23.80
2019-04-01T21:37:53.435Z,22.90
2019-04-01T21:40:20.254Z,26.83
2019-04-01T21:42:47.013Z,24.03
2019-04-01T21:45:13.738Z,22.57
2019-04-01T21:47:41.220Z,22.47
2019-04-01T21:50:07.226Z,23.57
2019-04-01T21:52:33.980Z,24.90
2019-04-01T21:55:00.698Z,22.03
2019-04-01T21:57:27.443Z,21.87
2019-04-01T21:59:54.175Z,22.40
2019-04-01T22:02:20.933Z,23.30
2019-04-01T22:04:47.662Z,27.07
2019-04-01T22:07:14.392Z,25.70
2019-04-01T22:09:41.130Z,21.90
2019-04-01T22:12:07.862Z,28.70
2019-04-01T22:14:34.610Z,29.50
2019-04-01T22:17:01.354Z,25.40
2019-04-01T22:19:28.098Z,25.93
2019-04-01T22:21:54.845Z,25.77
2019-04-01T22:24:21.589Z,21.60
2019-04-01T22:26:48.322Z,25.10
2019-04-01T22:29:15.059Z,28.37
2019-04-01T22:31:41.901Z,21.03
2019-04-01T22:34:09.223Z,24.60
2019-04-01T22:36:35.374Z,26.62
2019-04-01T22:39:02.135Z,25.10
2019-04-01T22:41:29.369Z,22.83
2019-04-01T22:43:55.618Z,24.27
2019-04-01T22:46:22.439Z,25.87
2019-04-01T22:48:49.209Z,23.73
2019-04-01T22:51:15.943Z,23.33
2019-04-01T22:53:42.690Z,28.27
2019-04-01T22:56:09.421Z,32.63
2019-04-01T22:58:36.162Z,26.43
2019-04-01T23:01:02.913Z,22.17
2019-04-01T23:03:29.651Z,24.87
2019-04-01T23:05:56.394Z,26.10
2019-04-01T23:08:23.136Z,26.03
2019-04-01T23:10:50.081Z,25.13
2019-04-01T23:13:16.814Z,23.17
2019-04-01T23:15:44.166Z,25.87
2019-04-01T23:18:10.308Z,24.47
2019-04-01T23:20:37.076Z,24.73
2019-04-01T23:23:03.798Z,28.38
2019-04-01T23:25:30.531Z,28.47
2019-04-01T23:27:57.360Z,29.37
2019-04-01T23:30:24.096Z,24.47
2019-04-01T23:32:50.816Z,29.63
2019-04-01T23:35:17.587Z,25.77
2019-04-01T23:37:44.314Z,27.37
2019-04-01T23:40:11.070Z,25.97
2019-04-01T23:42:38.218Z,24.30
2019-04-01T23:45:05.014Z,25.77
2019-04-01T23:47:31.746Z,28.33
2019-04-01T23:49:58.486Z,26.07
2019-04-01T23:52:25.220Z,29.00
2019-04-01T23:54:51.983Z,26.97
2019-04-01T23:57:18.726Z,24.20
2019-04-01T23:59:45.485Z,26.57
